Thunder radar more information blitzortung!


Löydät sääaseman tiedot myös:

European Weather Network

Finland Weather Exchange

Weather Underground

AWEKAS



Weather Underground säähistoriasivu

Päivittäin yhteenveto Helmikuu 6, 2017 Yksiköt:  Metriset    Englantilaiset   Molemmat
« Edellinen Päivä
Seuraava Päivä »
Päivittäin Viikoittain Kuukausittain Vuosittain Mukautettu
  Korkea: Matala: Keskiarvo:
Lämpötila: -17.8 °C -26.5 °C -22.7 °C
Kastepiste: -17.8 °C -27.4 °C -23.6 °C
Kosteus: Humidity % 81 % 86 %
Tuulen nopeus: 0 km/h 0 km/h 0.5 km/h
Tuulenpuuska: 0 km/h - -
Tuuli:- - SSE
Ilmanpaine: 0 hPa 34889.3 hPa -
Sade: 0 mm    
Historical Graphs
 
 
Taulukkotiedot Helmikuu 6, 2017
Aika Lämpötila Kastepiste Ilmanpaine Tuuli Tuulen nopeus Tuulenpuuska Kosteus Sademäärä (tunneittain)
-17.8 °C -17.8 °C 0 hPa Calm     Humidity % 0 mm
00:00 -20.6 °C -21.3 °C 34889.3 hPa East 5.1 km/h 18.2 km/h 90 % 0 mm
00:15 -20.6 °C -21.3 °C 34899.5 hPa SSE 2.6 km/h 10.3 km/h 90 % 0 mm
00:30 -20.6 °C -21.3 °C 34909.7 hPa SSE 2.6 km/h 12.9 km/h 90 % 0 mm
00:45 -20.6 °C -21.4 °C 34923.2 hPa ESE 5.1 km/h 25.9 km/h 89 % 0 mm
01:00 -20.6 °C -21.5 °C 34923.2 hPa Calm   10.3 km/h 88 % 0 mm
01:15 -20.6 °C -21.6 °C 34933.4 hPa SSE 2.6 km/h 12.9 km/h 87 % 0 mm
01:30 -20.6 °C -21.6 °C 34933.4 hPa Calm   10.3 km/h 87 % 0 mm
01:45 -20.6 °C -21.6 °C 34933.4 hPa Calm   10.3 km/h 87 % 0 mm
02:00 -20.6 °C -21.6 °C 34946.9 hPa Calm   5.1 km/h 87 % 0 mm
02:15 -20.6 °C -21.6 °C 34957.1 hPa Calm   15.6 km/h 87 % 0 mm
02:30 -20.6 °C -21.6 °C 34957.1 hPa Calm   10.3 km/h 88 % 0 mm
02:45 -20.7 °C -21.7 °C 34967.2 hPa SE 2.6 km/h 10.3 km/h 87 % 0 mm
03:00 -20.7 °C -21.8 °C 34967.2 hPa Calm   10.3 km/h 86 % 0 mm
03:15 -20.8 °C -22 °C 34967.2 hPa Calm   10.3 km/h 85 % 0 mm
03:30 -20.8 °C -21.9 °C 34980.8 hPa Calm   5.1 km/h 86 % 0 mm
03:45 -20.9 °C -21.9 °C 34980.8 hPa Calm   7.7 km/h 86 % 0 mm
04:00 -20.9 °C -21.9 °C 34990.9 hPa Calm   10.3 km/h 87 % 0 mm
04:15 -20.9 °C -22.1 °C 34990.9 hPa Calm   12.9 km/h 86 % 0 mm
04:30 -21 °C -22.1 °C 35001.1 hPa Calm   10.3 km/h 86 % 0 mm
04:45 -21.2 °C -22.3 °C 35001.1 hPa Calm     86 % 0 mm
05:00 -21.3 °C -22.4 °C 35001.1 hPa Calm     86 % 0 mm
05:15 -21.6 °C -22.7 °C 35014.6 hPa Calm     86 % 0 mm
05:30 -21.8 °C -22.8 °C 35024.8 hPa Calm     87 % 0 mm
05:45 -21.9 °C -22.8 °C 35038.3 hPa Calm   2.6 km/h 88 % 0 mm
06:00 -22 °C -22.9 °C 35038.3 hPa Calm     88 % 0 mm
06:15 -22.1 °C -22.9 °C 35048.5 hPa Calm   2.6 km/h 88 % 0 mm
06:30 -22.1 °C -22.9 °C 35048.5 hPa Calm   2.6 km/h 89 % 0 mm
06:45 -22 °C -22.9 °C 35058.6 hPa Calm   5.1 km/h 88 % 0 mm
07:00 -21.9 °C -22.8 °C 35058.6 hPa Calm   7.7 km/h 88 % 0 mm
07:15 -21.9 °C -22.8 °C 35072.2 hPa Calm   7.7 km/h 88 % 0 mm
07:30 -21.9 °C -22.9 °C 35072.2 hPa Calm   10.3 km/h 86 % 0 mm
07:45 -21.9 °C -23 °C 35082.3 hPa Calm   12.9 km/h 86 % 0 mm
08:00 -22.1 °C -23.2 °C 35082.3 hPa Calm   10.3 km/h 85 % 0 mm
08:15 -22.1 °C -23.2 °C 35095.9 hPa Calm   5.1 km/h 86 % 0 mm
08:30 -22.1 °C -23.2 °C 35095.9 hPa Calm   10.3 km/h 86 % 0 mm
08:45 -22.2 °C -23.2 °C 35106 hPa Calm     86 % 0 mm
09:00 -22.3 °C -23.3 °C 35116.2 hPa Calm   2.6 km/h 86 % 0 mm
09:15 -22.3 °C -23.3 °C 35129.8 hPa Calm   12.9 km/h 87 % 0 mm
09:30 -22.4 °C -23.4 °C 35129.8 hPa Calm   2.6 km/h 86 % 0 mm
09:45 -22.4 °C -23.4 °C 35139.9 hPa Calm   7.7 km/h 87 % 0 mm
10:00 -22.5 °C -23.5 °C 35139.9 hPa Calm     87 % 0 mm
10:15 -22.6 °C -23.6 °C 35139.9 hPa Calm   2.6 km/h 87 % 0 mm
10:30 -22.6 °C -23.6 °C 35150.1 hPa Calm   7.7 km/h 87 % 0 mm
10:45 -22.4 °C -23.4 °C 35163.6 hPa Calm   10.3 km/h 87 % 0 mm
11:00 -22.3 °C -23.3 °C 35163.6 hPa Calm   10.3 km/h 87 % 0 mm
11:15 -22.3 °C -23.3 °C 35173.8 hPa Calm   12.9 km/h 86 % 0 mm
11:30 -22.1 °C -23.3 °C 35173.8 hPa SSE 2.6 km/h 15.6 km/h 85 % 0 mm
11:45 -22 °C -23.1 °C 35173.8 hPa Calm   5.1 km/h 85 % 0 mm
12:00 -21.8 °C -23.1 °C 35173.8 hPa Calm   12.9 km/h 84 % 0 mm
12:15 -21.8 °C -23.1 °C 35187.3 hPa SSE 2.6 km/h 10.3 km/h 84 % 0 mm
12:30 -21.8 °C -23.1 °C 35187.3 hPa SE 5.1 km/h 15.6 km/h 84 % 0 mm
12:45 -21.8 °C -23.1 °C 35187.3 hPa SSE 2.6 km/h 18.2 km/h 83 % 0 mm
13:00 -21.7 °C -23 °C 35187.3 hPa Calm   5.1 km/h 84 % 0 mm
13:30 -21.7 °C -23 °C 35197.5 hPa Calm   7.7 km/h 84 % 0 mm
13:45 -21.7 °C -22.9 °C 35207.6 hPa Calm   5.1 km/h 85 % 0 mm
14:00 -21.7 °C -23 °C 35207.6 hPa Calm   12.9 km/h 84 % 0 mm
14:15 -21.7 °C -22.9 °C 35207.6 hPa Calm   10.3 km/h 84 % 0 mm
14:30 -21.7 °C -22.9 °C 35207.6 hPa Calm   12.9 km/h 84 % 0 mm
14:45 -21.6 °C -22.9 °C 35221.2 hPa SSE 2.6 km/h 18.2 km/h 84 % 0 mm
15:00 -21.6 °C -23.2 °C 35221.2 hPa SSE 2.6 km/h 10.3 km/h 81 % 0 mm
15:15 -22 °C -23.5 °C 35231.3 hPa Calm   10.3 km/h 81 % 0 mm
15:30 -22.2 °C -23.5 °C 35231.3 hPa Calm   2.6 km/h 83 % 0 mm
15:45 -22.3 °C -23.6 °C 35231.3 hPa Calm     84 % 0 mm
16:00 -22.6 °C -23.7 °C 35231.3 hPa Calm     85 % 0 mm
16:15 -22.7 °C -23.8 °C 35244.9 hPa Calm     86 % 0 mm
16:30 -22.9 °C -23.8 °C 35244.9 hPa Calm     87 % 0 mm
16:45 -23.1 °C -24.1 °C 35255 hPa Calm     87 % 0 mm
17:00 -23.3 °C -24.2 °C 35255 hPa Calm     88 % 0 mm
17:15 -23.7 °C -24.6 °C 35255 hPa Calm     88 % 0 mm
17:30 -23.9 °C -24.8 °C 35265.2 hPa Calm     88 % 0 mm
17:45 -24.1 °C -24.9 °C 35265.2 hPa Calm     89 % 0 mm
18:00 -24.3 °C -25.2 °C 35265.2 hPa Calm     89 % 0 mm
18:15 -24.6 °C -25.3 °C 35278.7 hPa Calm     89 % 0 mm
18:30 -24.7 °C -25.4 °C 35278.7 hPa Calm     90 % 0 mm
18:45 -24.7 °C -25.4 °C 35278.7 hPa Calm     90 % 0 mm
19:00 -24.8 °C -25.5 °C 35278.7 hPa Calm     90 % 0 mm
19:15 -24.9 °C -25.6 °C 35278.7 hPa Calm     90 % 0 mm
19:30 -25 °C -25.7 °C 35288.9 hPa Calm     90 % 0 mm
19:45 -25.1 °C -25.8 °C 35288.9 hPa Calm     90 % 0 mm
20:00 -25.2 °C -25.9 °C 35288.9 hPa Calm     90 % 0 mm
20:15 -25.2 °C -25.9 °C 35288.9 hPa Calm     90 % 0 mm
20:30 -25.3 °C -26.1 °C 35299.1 hPa Calm     90 % 0 mm
20:45 -25.3 °C -26 °C 35299.1 hPa Calm     90 % 0 mm
21:00 -25.3 °C -26.1 °C 35299.1 hPa Calm     90 % 0 mm
21:15 -25.4 °C -26.3 °C 35299.1 hPa Calm     89 % 0 mm
21:30 -25.6 °C -26.4 °C 35312.6 hPa Calm     89 % 0 mm
21:45 -25.7 °C -26.5 °C 35312.6 hPa Calm     89 % 0 mm
22:00 -25.8 °C -26.6 °C 35322.8 hPa Calm     89 % 0 mm
22:15 -25.9 °C -26.7 °C 35322.8 hPa Calm     89 % 0 mm
22:30 -26.1 °C -26.9 °C 35322.8 hPa Calm     89 % 0 mm
22:45 -26.2 °C -27 °C 35322.8 hPa Calm     89 % 0 mm
23:00 -26.3 °C -27.1 °C 35322.8 hPa Calm     89 % 0 mm
23:15 -26.3 °C -27.1 °C 35336.3 hPa Calm     89 % 0 mm
23:30 -26.4 °C -27.2 °C 35336.3 hPa Calm     88 % 0 mm
23:45 -26.5 °C -27.4 °C 35346.5 hPa Calm     88 % 0 mm
Esan sääasema
Terveisin Weather Underground - 3 mb

Alkuperäinen skripti  Jim McMurry - jmcmurry@mwt.net Sovitettu myös templatelle  Wim van der Kuil - Leuven-Template.eu

Laitteet joita käytämme:

Sääasema
Davis VP2

Sääasemaohjelma
Cumulus

Sääaseman tietokone
Asus EeePC

Palveluntarjoaja
Suncomet

Davis VP2

Cumulus

Asus EeePC

Suncomet